createdAt,value
2018-02-12T00:00:44.014Z,100213.20
2018-02-12T00:01:48.477Z,100205.77
2018-02-12T00:02:52.740Z,100203.53
2018-02-12T00:03:56.930Z,100210.53
2018-02-12T00:05:01.183Z,100213.16
2018-02-12T00:06:06.363Z,100204.45
2018-02-12T00:07:10.505Z,100210.13
2018-02-12T00:08:14.981Z,100217.13
2018-02-12T00:09:19.755Z,100214.95
2018-02-12T00:10:25.369Z,100217.56
2018-02-12T00:11:30.503Z,100218.88
2018-02-12T00:12:34.680Z,100207.98
2018-02-12T00:13:38.864Z,100215.42
2018-02-12T00:14:43.496Z,100236.02
2018-02-12T00:15:47.966Z,100228.18
2018-02-12T00:16:52.180Z,100227.74
2018-02-12T00:17:56.372Z,100222.94
2018-02-12T00:19:00.614Z,100223.00
2018-02-12T00:20:05.502Z,100217.75
2018-02-12T00:21:10.169Z,100230.91
2018-02-12T00:22:14.907Z,100231.34
2018-02-12T00:23:19.140Z,100221.28
2018-02-12T00:24:24.371Z,100229.16
2018-02-12T00:25:29.147Z,100223.51
2018-02-12T00:26:33.333Z,100226.57
2018-02-12T00:27:37.960Z,100225.23
2018-02-12T00:28:42.495Z,100220.41
2018-02-12T00:29:46.997Z,100220.41
2018-02-12T00:30:51.589Z,100216.07
2018-02-12T00:31:55.936Z,100226.61
2018-02-12T00:33:00.555Z,100221.33
2018-02-12T00:34:05.651Z,100221.28
2018-02-12T00:35:09.828Z,100218.23
2018-02-12T00:36:14.056Z,100223.84
2018-02-12T00:37:18.220Z,100227.78
2018-02-12T00:38:22.387Z,100236.09
2018-02-12T00:39:27.562Z,100249.65
2018-02-12T00:40:31.741Z,100243.05
2018-02-12T00:41:35.887Z,100239.55
2018-02-12T00:42:40.050Z,100243.92
2018-02-12T00:43:44.344Z,100239.55
2018-02-12T00:44:48.715Z,100248.70
2018-02-12T00:45:53.652Z,100252.64
2018-02-12T00:46:57.848Z,100246.91
2018-02-12T00:48:03.892Z,100249.57
2018-02-12T00:49:08.062Z,100253.51
2018-02-12T00:50:12.351Z,100245.64
2018-02-12T00:51:16.569Z,100246.52
2018-02-12T00:52:20.873Z,100252.20
2018-02-12T00:53:26.327Z,100255.22
2018-02-12T00:54:30.499Z,100258.31
2018-02-12T00:55:35.108Z,100267.89
2018-02-12T00:56:39.423Z,100267.45
2018-02-12T00:57:44.119Z,100251.72
2018-02-12T00:58:49.064Z,100264.80
2018-02-12T00:59:53.413Z,100259.11
2018-02-12T01:00:57.781Z,100262.56
2018-02-12T01:02:02.284Z,100268.64
2018-02-12T01:03:07.347Z,100266.55
2018-02-12T01:04:11.535Z,100269.61
2018-02-12T01:05:15.683Z,100277.08
2018-02-12T01:06:19.856Z,100276.64
2018-02-12T01:07:24.080Z,100281.89
2018-02-12T01:08:29.109Z,100274.89
2018-02-12T01:09:33.794Z,100267.02
2018-02-12T01:10:38.289Z,100272.67
2018-02-12T01:11:42.465Z,100269.17
2018-02-12T01:12:46.822Z,100274.81
2018-02-12T01:13:51.127Z,100274.77
2018-02-12T01:14:55.287Z,100264.71
2018-02-12T01:15:59.731Z,100279.57
2018-02-12T01:17:05.992Z,100258.14
2018-02-12T01:18:10.179Z,100266.85
2018-02-12T01:19:14.607Z,100265.14
2018-02-12T01:20:18.843Z,100269.95
2018-02-12T01:21:22.990Z,100276.46
2018-02-12T01:22:28.187Z,100271.61
2018-02-12T01:23:32.364Z,100279.04
2018-02-12T01:24:36.534Z,100284.23
2018-02-12T01:25:40.712Z,100286.86
2018-02-12T01:26:44.976Z,100289.91
2018-02-12T01:27:49.236Z,100279.91
2018-02-12T01:28:54.147Z,100281.70
2018-02-12T01:29:58.332Z,100291.77
2018-02-12T01:31:03.043Z,100300.12
2018-02-12T01:32:07.496Z,100290.07
2018-02-12T01:33:11.802Z,100296.62
2018-02-12T01:34:16.015Z,100304.49
2018-02-12T01:35:20.552Z,100296.62
2018-02-12T01:36:25.064Z,100310.17
2018-02-12T01:37:29.209Z,100308.91
2018-02-12T01:38:33.368Z,100312.02
2018-02-12T01:39:37.813Z,100322.95
2018-02-12T01:40:42.150Z,100325.63
2018-02-12T01:41:47.025Z,100320.86
2018-02-12T01:42:51.207Z,100328.34
2018-02-12T01:43:55.696Z,100328.34
2018-02-12T01:44:59.875Z,100328.83
2018-02-12T01:46:05.159Z,100329.70
2018-02-12T01:47:09.316Z,100331.84
2018-02-12T01:48:13.520Z,100329.66
2018-02-12T01:49:18.168Z,100326.55
2018-02-12T01:50:22.360Z,100326.95
2018-02-12T01:51:26.815Z,100331.31
2018-02-12T01:52:31.519Z,100338.31
2018-02-12T01:53:35.754Z,100342.23
2018-02-12T01:54:39.957Z,100340.06
2018-02-12T01:55:44.170Z,100343.55
2018-02-12T01:56:49.397Z,100343.99
2018-02-12T01:57:53.553Z,100352.30
2018-02-12T01:58:58.053Z,100343.12
2018-02-12T02:00:05.650Z,100343.95
2018-02-12T02:01:10.329Z,100340.92
2018-02-12T02:02:14.551Z,100337.88
2018-02-12T02:03:18.691Z,100340.54
2018-02-12T02:04:23.556Z,100345.79
2018-02-12T02:05:29.075Z,100347.98
2018-02-12T02:06:33.273Z,100347.14
2018-02-12T02:07:37.550Z,100338.84
2018-02-12T02:08:41.743Z,100342.33
2018-02-12T02:09:46.340Z,100335.30
2018-02-12T02:10:50.768Z,100336.13
2018-02-12T02:11:55.255Z,100320.33
2018-02-12T02:12:59.452Z,100311.59
2018-02-12T02:14:03.648Z,100322.47
2018-02-12T02:15:08.132Z,100326.80
2018-02-12T02:16:12.579Z,100326.79
2018-02-12T02:17:16.739Z,100318.39
2018-02-12T02:18:20.918Z,100328.00
2018-02-12T02:19:25.560Z,100326.64
2018-02-12T02:20:30.583Z,100336.25
2018-02-12T02:21:34.752Z,100318.28
2018-02-12T02:22:39.012Z,100327.07
2018-02-12T02:23:43.221Z,100329.69
2018-02-12T02:24:47.908Z,100328.39
2018-02-12T02:25:52.100Z,100329.70
2018-02-12T02:26:56.227Z,100330.09
2018-02-12T02:28:01.204Z,100327.02
2018-02-12T02:29:05.356Z,100328.72
2018-02-12T02:30:09.739Z,100333.52
2018-02-12T02:31:14.595Z,100332.66
2018-02-12T02:32:18.928Z,100330.91
2018-02-12T02:33:23.063Z,100331.34
2018-02-12T02:34:27.271Z,100331.34
2018-02-12T02:35:31.923Z,100333.47
2018-02-12T02:36:36.179Z,100335.66
2018-02-12T02:37:40.669Z,100334.77
2018-02-12T02:38:44.887Z,100339.15
2018-02-12T02:39:49.324Z,100330.84
2018-02-12T02:40:53.495Z,100330.84
2018-02-12T02:41:57.679Z,100334.34
2018-02-12T02:43:01.831Z,100326.48
2018-02-12T02:44:06.408Z,100331.28
2018-02-12T02:45:11.776Z,100336.52
2018-02-12T02:46:15.953Z,100322.92
2018-02-12T02:47:20.698Z,100329.92
2018-02-12T02:48:25.244Z,100332.55
2018-02-12T02:49:29.761Z,100336.46
2018-02-12T02:50:35.676Z,100346.47
2018-02-12T02:51:40.617Z,100339.10
2018-02-12T02:52:44.795Z,100340.08
2018-02-12T02:53:49.184Z,100343.08
2018-02-12T02:54:53.376Z,100354.83
2018-02-12T02:55:57.896Z,100355.25
2018-02-12T02:57:03.255Z,100356.57
2018-02-12T02:58:07.540Z,100345.64
2018-02-12T02:59:11.740Z,100355.64
2018-02-12T03:00:17.267Z,100349.09
2018-02-12T03:01:21.383Z,100353.91
2018-02-12T03:02:25.881Z,100356.08
2018-02-12T03:03:30.054Z,100358.64
2018-02-12T03:04:34.631Z,100353.44
2018-02-12T03:05:39.841Z,100349.08
2018-02-12T03:06:44.335Z,100352.58
2018-02-12T03:07:48.821Z,100352.19
2018-02-12T03:08:53.072Z,100365.75
2018-02-12T03:09:57.211Z,100351.39
2018-02-12T03:11:01.452Z,100354.50
2018-02-12T03:12:06.593Z,100359.32
2018-02-12T03:13:10.831Z,100364.56
2018-02-12T03:14:15.052Z,100359.36
2018-02-12T03:15:21.430Z,100363.73
2018-02-12T03:16:25.586Z,100357.61
2018-02-12T03:17:29.952Z,100357.66
2018-02-12T03:18:34.184Z,100364.62
2018-02-12T03:19:39.227Z,100366.80
2018-02-12T03:20:43.493Z,100369.37
2018-02-12T03:21:48.254Z,100379.03
2018-02-12T03:22:52.528Z,100365.49
2018-02-12T03:23:56.816Z,100357.61
2018-02-12T03:25:01.032Z,100367.23
2018-02-12T03:26:05.807Z,100362.81
2018-02-12T03:27:10.005Z,100374.16
2018-02-12T03:28:14.444Z,100374.11
2018-02-12T03:29:18.550Z,100368.81
2018-02-12T03:30:23.023Z,100373.17
2018-02-12T03:31:27.423Z,100371.86
2018-02-12T03:32:32.159Z,100374.92
2018-02-12T03:33:36.495Z,100377.10
2018-02-12T03:34:41.084Z,100364.81
2018-02-12T03:35:45.314Z,100384.09
2018-02-12T03:36:49.755Z,100384.16
2018-02-12T03:37:53.928Z,100382.91
2018-02-12T03:38:58.060Z,100378.98
2018-02-12T03:40:02.547Z,100377.67
2018-02-12T03:41:06.807Z,100392.03
2018-02-12T03:42:11.014Z,100390.77
2018-02-12T03:43:15.132Z,100387.27
2018-02-12T03:44:19.268Z,100386.84
2018-02-12T03:45:23.844Z,100390.78
2018-02-12T03:46:28.356Z,100387.71
2018-02-12T03:47:32.614Z,100395.14
2018-02-12T03:48:37.723Z,100390.73
2018-02-12T03:49:41.994Z,100388.11
2018-02-12T03:50:46.655Z,100395.48
2018-02-12T03:51:50.892Z,100394.20
2018-02-12T03:52:55.713Z,100397.26
2018-02-12T03:54:00.212Z,100405.12
2018-02-12T03:55:04.525Z,100406.83
2018-02-12T03:56:09.163Z,100409.90
2018-02-12T03:57:13.646Z,100403.37
2018-02-12T03:58:17.770Z,100413.50
2018-02-12T03:59:21.965Z,100403.51
2018-02-12T04:00:26.616Z,100407.06
2018-02-12T04:01:31.160Z,100404.45
2018-02-12T04:02:36.869Z,100411.88
2018-02-12T04:03:42.231Z,100412.75
2018-02-12T04:04:46.969Z,100406.63
2018-02-12T04:05:51.789Z,100413.23
2018-02-12T04:06:56.300Z,100406.70
2018-02-12T04:08:00.818Z,100415.83
2018-02-12T04:09:05.492Z,100422.37
2018-02-12T04:10:10.323Z,100414.02
2018-02-12T04:11:15.011Z,100414.82
2018-02-12T04:12:19.996Z,100425.32
2018-02-12T04:13:24.512Z,100421.32
2018-02-12T04:14:29.160Z,100422.63
2018-02-12T04:15:33.443Z,100426.11
2018-02-12T04:16:38.503Z,100428.25
2018-02-12T04:17:42.986Z,100432.22
2018-02-12T04:18:47.968Z,100430.98
2018-02-12T04:19:52.706Z,100432.30
2018-02-12T04:20:57.063Z,100433.19
2018-02-12T04:22:01.739Z,100440.66
2018-02-12T04:23:05.896Z,100444.59
2018-02-12T04:24:11.037Z,100440.23
2018-02-12T04:25:15.607Z,100445.42
2018-02-12T04:26:19.827Z,100443.22
2018-02-12T04:27:23.990Z,100433.98
2018-02-12T04:28:28.151Z,100437.47
2018-02-12T04:29:32.281Z,100437.91
2018-02-12T04:30:36.879Z,100444.48
2018-02-12T04:31:41.239Z,100437.98
2018-02-12T04:32:45.832Z,100443.28
2018-02-12T04:33:50.084Z,100443.30
2018-02-12T04:34:54.340Z,100442.48
2018-02-12T04:35:58.770Z,100442.61
2018-02-12T04:37:02.976Z,100446.14
2018-02-12T04:38:08.631Z,100450.09
2018-02-12T04:39:13.283Z,100445.21
2018-02-12T04:40:17.845Z,100452.16
2018-02-12T04:41:22.048Z,100456.02
2018-02-12T04:42:26.921Z,100448.53
2018-02-12T04:43:31.346Z,100454.14
2018-02-12T04:44:36.845Z,100458.41
2018-02-12T04:45:41.419Z,100453.20
2018-02-12T04:46:45.738Z,100458.39
2018-02-12T04:47:49.942Z,100455.77
2018-02-12T04:48:55.037Z,100454.45
2018-02-12T04:49:59.455Z,100459.20
2018-02-12T04:51:03.597Z,100461.77
2018-02-12T04:52:08.082Z,100464.36
2018-02-12T04:53:12.569Z,100461.30
2018-02-12T04:54:16.733Z,100459.05
2018-02-12T04:55:20.883Z,100465.62
2018-02-12T04:56:25.763Z,100470.80
2018-02-12T04:57:30.411Z,100460.72
2018-02-12T04:58:34.821Z,100455.91
2018-02-12T04:59:39.757Z,100455.50
2018-02-12T05:00:44.847Z,100459.86
2018-02-12T05:01:49.918Z,100462.42
2018-02-12T05:02:54.256Z,100460.59
2018-02-12T05:03:58.844Z,100465.83
2018-02-12T05:05:03.147Z,100468.44
2018-02-12T05:06:07.767Z,100471.06
2018-02-12T05:07:12.193Z,100479.44
2018-02-12T05:08:16.801Z,100470.64
2018-02-12T05:09:20.936Z,100473.64
2018-02-12T05:10:25.952Z,100469.24
2018-02-12T05:11:30.656Z,100474.05
2018-02-12T05:12:35.858Z,100467.87
2018-02-12T05:13:40.004Z,100470.11
2018-02-12T05:14:44.549Z,100477.12
2018-02-12T05:15:49.086Z,100478.42
2018-02-12T05:16:53.433Z,100477.98
2018-02-12T05:17:57.750Z,100484.13
2018-02-12T05:19:02.048Z,100485.92
2018-02-12T05:20:06.555Z,100486.34
2018-02-12T05:21:10.728Z,100488.98
2018-02-12T05:22:15.728Z,100488.13
2018-02-12T05:23:19.895Z,100492.97
2018-02-12T05:24:24.472Z,100489.52
2018-02-12T05:25:28.718Z,100497.84
2018-02-12T05:26:33.171Z,100496.47
2018-02-12T05:27:38.115Z,100492.92
2018-02-12T05:28:42.315Z,100492.19
2018-02-12T05:29:46.624Z,100496.57
2018-02-12T05:30:51.136Z,100493.45
2018-02-12T05:31:55.348Z,100510.95
2018-02-12T05:32:59.815Z,100487.82
2018-02-12T05:34:04.108Z,100491.76
2018-02-12T05:35:08.249Z,100490.02
2018-02-12T05:36:12.464Z,100492.70
2018-02-12T05:37:16.792Z,100496.18
2018-02-12T05:38:21.032Z,100495.77
2018-02-12T05:39:25.508Z,100496.14
2018-02-12T05:40:29.754Z,100496.12
2018-02-12T05:41:33.924Z,100491.70
2018-02-12T05:42:38.061Z,100497.44
2018-02-12T05:43:42.450Z,100497.52
2018-02-12T05:44:46.618Z,100509.44
2018-02-12T05:45:50.920Z,100509.59
2018-02-12T05:46:55.462Z,100505.67
2018-02-12T05:47:59.625Z,100512.22
2018-02-12T05:49:04.127Z,100504.80
2018-02-12T05:50:08.932Z,100520.13
2018-02-12T05:51:13.215Z,100517.47
2018-02-12T05:52:17.478Z,100519.27
2018-02-12T05:53:21.619Z,100520.95
2018-02-12T05:54:25.829Z,100514.84
2018-02-12T05:55:30.082Z,100523.64
2018-02-12T05:56:34.283Z,100521.39
2018-02-12T05:57:38.756Z,100519.21
2018-02-12T05:58:43.851Z,100526.20
2018-02-12T05:59:47.980Z,100518.78
2018-02-12T06:00:52.415Z,100517.16
2018-02-12T06:01:56.704Z,100524.17
2018-02-12T06:03:01.037Z,100529.33
2018-02-12T06:04:05.515Z,100529.70
2018-02-12T06:05:10.776Z,100525.31
2018-02-12T06:06:14.937Z,100537.56
2018-02-12T06:07:19.326Z,100527.59
2018-02-12T06:08:23.659Z,100533.39
2018-02-12T06:09:27.843Z,100537.26
2018-02-12T06:10:32.342Z,100526.77
2018-02-12T06:11:37.660Z,100545.20
2018-02-12T06:12:42.424Z,100536.89
2018-02-12T06:13:46.596Z,100532.95
2018-02-12T06:14:51.005Z,100534.29
2018-02-12T06:15:55.467Z,100536.55
2018-02-12T06:17:00.156Z,100541.78
2018-02-12T06:18:04.831Z,100537.03
2018-02-12T06:19:09.532Z,100540.91
2018-02-12T06:20:13.827Z,100535.27
2018-02-12T06:21:18.040Z,100541.05
2018-02-12T06:22:22.251Z,100548.05
2018-02-12T06:23:26.780Z,100545.05
2018-02-12T06:24:31.004Z,100543.80
2018-02-12T06:25:35.256Z,100545.11
2018-02-12T06:26:39.405Z,100541.60
2018-02-12T06:27:43.582Z,100538.56
2018-02-12T06:28:47.820Z,100536.85
2018-02-12T06:29:52.292Z,100545.23
2018-02-12T06:30:57.043Z,100544.75
2018-02-12T06:32:01.709Z,100548.72
2018-02-12T06:33:05.953Z,100545.67
2018-02-12T06:34:10.247Z,100546.19
2018-02-12T06:35:14.383Z,100550.97
2018-02-12T06:36:18.512Z,100563.25
2018-02-12T06:37:22.654Z,100573.28
2018-02-12T06:38:26.827Z,100568.91
2018-02-12T06:39:31.064Z,100572.86
2018-02-12T06:40:35.232Z,100568.48
2018-02-12T06:41:39.361Z,100573.72
2018-02-12T06:42:44.466Z,100575.03
2018-02-12T06:43:48.878Z,100586.37
2018-02-12T06:44:52.987Z,100594.20
2018-02-12T06:45:57.369Z,100587.61
2018-02-12T06:47:01.709Z,100592.48
2018-02-12T06:48:06.252Z,100589.36
2018-02-12T06:49:10.476Z,100595.47
2018-02-12T06:50:14.647Z,100588.40
2018-02-12T06:51:19.563Z,100601.89
2018-02-12T06:52:23.871Z,100598.89
2018-02-12T06:53:28.092Z,100591.02
2018-02-12T06:54:32.585Z,100607.49
2018-02-12T06:55:36.727Z,100607.00
2018-02-12T06:56:40.866Z,100606.11
2018-02-12T06:57:45.837Z,100614.48
2018-02-12T06:58:51.240Z,100610.03
2018-02-12T06:59:55.364Z,100617.42
2018-02-12T07:01:00.323Z,100612.74
2018-02-12T07:02:04.705Z,100616.62
2018-02-12T07:03:08.948Z,100618.44
2018-02-12T07:04:13.059Z,100619.73
2018-02-12T07:05:17.221Z,100622.73
2018-02-12T07:06:22.250Z,100624.92
2018-02-12T07:07:26.379Z,100624.92
2018-02-12T07:08:31.340Z,100628.00
2018-02-12T07:09:35.468Z,100627.97
2018-02-12T07:10:39.728Z,100627.97
2018-02-12T07:11:44.889Z,100634.91
2018-02-12T07:12:49.045Z,100629.23
2018-02-12T07:13:53.245Z,100638.84
2018-02-12T07:14:57.433Z,100631.05
2018-02-12T07:16:02.087Z,100635.04
2018-02-12T07:17:06.676Z,100641.67
2018-02-12T07:18:11.274Z,100643.45
2018-02-12T07:19:15.408Z,100641.77
2018-02-12T07:20:20.168Z,100644.39
2018-02-12T07:21:25.236Z,100647.94
2018-02-12T07:22:29.724Z,100654.02
2018-02-12T07:23:34.187Z,100662.88
2018-02-12T07:24:38.323Z,100664.66
2018-02-12T07:25:43.325Z,100662.59
2018-02-12T07:26:47.471Z,100666.61
2018-02-12T07:27:51.676Z,100668.93
2018-02-12T07:28:55.983Z,100669.37
2018-02-12T07:30:00.445Z,100670.18
2018-02-12T07:31:05.268Z,100664.51
2018-02-12T07:32:09.721Z,100667.98
2018-02-12T07:33:13.888Z,100669.29
2018-02-12T07:34:18.096Z,100664.92
2018-02-12T07:35:23.169Z,100676.30
2018-02-12T07:36:27.715Z,100677.67
2018-02-12T07:37:31.879Z,100682.50
2018-02-12T07:38:35.998Z,100682.41
2018-02-12T07:39:40.278Z,100684.55
2018-02-12T07:40:45.319Z,100688.03
2018-02-12T07:41:49.472Z,100681.98
2018-02-12T07:42:54.202Z,100689.07
2018-02-12T07:43:58.349Z,100689.44
2018-02-12T07:45:04.151Z,100684.61
2018-02-12T07:46:08.310Z,100688.98
2018-02-12T07:47:12.585Z,100691.27
2018-02-12T07:48:17.089Z,100694.38
2018-02-12T07:49:21.328Z,100690.52
2018-02-12T07:50:25.499Z,100690.27
2018-02-12T07:51:29.734Z,100700.92
2018-02-12T07:52:33.896Z,100696.99
2018-02-12T07:53:38.046Z,100685.28
2018-02-12T07:54:42.658Z,100694.97
2018-02-12T07:55:47.896Z,100694.17
2018-02-12T07:56:52.197Z,100708.34
2018-02-12T07:57:56.366Z,100694.28
2018-02-12T07:59:00.552Z,100703.66
2018-02-12T08:00:06.271Z,100706.02
2018-02-12T08:01:10.760Z,100707.38
2018-02-12T08:02:14.901Z,100710.89
2018-02-12T08:03:19.067Z,100713.06
2018-02-12T08:04:23.703Z,100710.33
2018-02-12T08:05:27.978Z,100707.70
2018-02-12T08:06:32.356Z,100712.09
2018-02-12T08:07:36.500Z,100707.77
2018-02-12T08:08:40.668Z,100714.38
2018-02-12T08:09:44.873Z,100716.97
2018-02-12T08:10:49.055Z,100716.86
2018-02-12T08:11:53.291Z,100719.42
2018-02-12T08:12:57.440Z,100725.49
2018-02-12T08:14:01.964Z,100734.77
2018-02-12T08:15:07.255Z,100735.14
2018-02-12T08:16:11.769Z,100738.75
2018-02-12T08:17:16.212Z,100739.63
2018-02-12T08:18:21.432Z,100743.91
2018-02-12T08:19:25.671Z,100745.16
2018-02-12T08:20:30.174Z,100744.39
2018-02-12T08:21:34.429Z,100743.69
2018-02-12T08:22:38.643Z,100745.17
2018-02-12T08:23:42.830Z,100754.65
2018-02-12T08:24:46.971Z,100757.08
2018-02-12T08:25:51.219Z,100762.28
2018-02-12T08:26:55.694Z,100759.22
2018-02-12T08:27:59.948Z,100755.80
2018-02-12T08:29:04.231Z,100760.95
2018-02-12T08:30:08.836Z,100767.86
2018-02-12T08:31:13.564Z,100766.30
2018-02-12T08:32:17.730Z,100770.11
2018-02-12T08:33:22.064Z,100772.25
2018-02-12T08:34:27.132Z,100773.13
2018-02-12T08:35:31.403Z,100776.70
2018-02-12T08:36:35.536Z,100784.59
2018-02-12T08:37:39.681Z,100779.84
2018-02-12T08:38:44.257Z,100783.41
2018-02-12T08:39:48.453Z,100792.39
2018-02-12T08:40:52.749Z,100797.66
2018-02-12T08:41:56.918Z,100804.49
2018-02-12T08:43:01.266Z,100796.16
2018-02-12T08:44:05.851Z,100797.03
2018-02-12T08:45:10.487Z,100799.23
2018-02-12T08:46:14.728Z,100797.97
2018-02-12T08:47:19.962Z,100804.44
2018-02-12T08:48:24.115Z,100818.80
2018-02-12T08:49:28.341Z,100817.31
2018-02-12T08:50:32.864Z,100806.86
2018-02-12T08:51:37.016Z,100815.55
2018-02-12T08:52:41.835Z,100811.47
2018-02-12T08:53:46.021Z,100811.96
2018-02-12T08:54:50.332Z,100817.25
2018-02-12T08:55:54.604Z,100815.46
2018-02-12T08:56:58.848Z,100820.67
2018-02-12T08:58:03.112Z,100813.22
2018-02-12T08:59:07.380Z,100811.84
2018-02-12T09:00:13.689Z,100813.58
2018-02-12T09:01:17.843Z,100809.59
2018-02-12T09:02:22.295Z,100815.70
2018-02-12T09:03:26.547Z,100810.75
2018-02-12T09:04:30.724Z,100808.89
2018-02-12T09:05:34.951Z,100811.02
2018-02-12T09:06:39.089Z,100808.31
2018-02-12T09:07:44.189Z,100813.99
2018-02-12T09:08:48.460Z,100817.97
2018-02-12T09:09:52.957Z,100822.94
2018-02-12T09:10:57.206Z,100821.77
2018-02-12T09:12:01.401Z,100827.17
2018-02-12T09:13:05.708Z,100825.55
2018-02-12T09:14:10.121Z,100823.07
2018-02-12T09:15:16.480Z,100823.69
2018-02-12T09:16:20.620Z,100825.16
2018-02-12T09:17:24.976Z,100820.90
2018-02-12T09:18:29.107Z,100824.02
2018-02-12T09:19:33.677Z,100823.64
2018-02-12T09:20:37.811Z,100826.78
2018-02-12T09:21:42.709Z,100828.27
2018-02-12T09:22:46.884Z,100833.25
2018-02-12T09:23:51.081Z,100829.52
2018-02-12T09:24:55.297Z,100835.45
2018-02-12T09:25:59.821Z,100831.98
2018-02-12T09:27:04.138Z,100823.34
2018-02-12T09:28:08.397Z,100837.34
2018-02-12T09:29:12.543Z,100827.16
2018-02-12T09:30:16.961Z,100835.15
2018-02-12T09:31:21.246Z,100833.08
2018-02-12T09:32:26.600Z,100843.87
2018-02-12T09:33:30.879Z,100833.59
2018-02-12T09:34:35.096Z,100837.91
2018-02-12T09:35:39.902Z,100841.38
2018-02-12T09:36:44.655Z,100848.88
2018-02-12T09:37:48.844Z,100848.52
2018-02-12T09:38:53.094Z,100846.81
2018-02-12T09:39:57.244Z,100856.69
2018-02-12T09:41:01.452Z,100857.25
2018-02-12T09:42:05.668Z,100848.48
2018-02-12T09:43:10.923Z,100854.59
2018-02-12T09:44:15.178Z,100868.95
2018-02-12T09:45:20.826Z,100855.55
2018-02-12T09:46:25.592Z,100856.91
2018-02-12T09:47:31.493Z,100856.98
2018-02-12T09:48:35.688Z,100858.78
2018-02-12T09:49:40.943Z,100849.31
2018-02-12T09:50:45.115Z,100876.09
2018-02-12T09:51:49.693Z,100878.69
2018-02-12T09:52:53.946Z,100876.83
2018-02-12T09:53:58.289Z,100878.52
2018-02-12T09:55:02.584Z,100880.41
2018-02-12T09:56:07.015Z,100886.45
2018-02-12T09:57:11.336Z,100881.55
2018-02-12T09:58:15.521Z,100892.45
2018-02-12T09:59:19.853Z,100893.81
2018-02-12T10:00:24.319Z,100896.05
2018-02-12T10:01:29.444Z,100889.06
2018-02-12T10:02:33.723Z,100891.73
2018-02-12T10:03:37.996Z,100899.34
2018-02-12T10:04:42.975Z,100903.00
2018-02-12T10:05:47.267Z,100893.55
2018-02-12T10:06:51.425Z,100898.90
2018-02-12T10:07:55.595Z,100901.13
2018-02-12T10:09:00.072Z,100901.64
2018-02-12T10:10:04.834Z,100901.63
2018-02-12T10:11:09.215Z,100903.41
2018-02-12T10:12:13.364Z,100902.63
2018-02-12T10:13:17.539Z,100907.94
2018-02-12T10:14:21.773Z,100912.34
2018-02-12T10:15:27.384Z,100905.30
2018-02-12T10:16:32.076Z,100911.02
2018-02-12T10:17:36.272Z,100916.29
2018-02-12T10:18:40.521Z,100919.37
2018-02-12T10:19:45.493Z,100918.04
2018-02-12T10:20:49.696Z,100920.27
2018-02-12T10:21:53.844Z,100912.80
2018-02-12T10:22:58.549Z,100914.98
2018-02-12T10:24:02.950Z,100915.00
2018-02-12T10:25:07.217Z,100926.93
2018-02-12T10:26:11.425Z,100929.55
2018-02-12T10:27:15.633Z,100927.76
2018-02-12T10:28:19.820Z,100928.22
2018-02-12T10:29:24.077Z,100926.00
2018-02-12T10:30:29.168Z,100930.41
2018-02-12T10:31:33.369Z,100930.41
2018-02-12T10:32:37.589Z,100933.04
2018-02-12T10:33:42.599Z,100933.55
2018-02-12T10:34:46.762Z,100934.42
2018-02-12T10:35:51.362Z,100941.03
2018-02-12T10:36:55.709Z,100944.05
2018-02-12T10:37:59.951Z,100945.38
2018-02-12T10:39:04.452Z,100945.42
2018-02-12T10:40:08.611Z,100944.54
2018-02-12T10:41:12.855Z,100947.64
2018-02-12T10:42:17.410Z,100963.94
2018-02-12T10:43:21.656Z,100952.06
2018-02-12T10:44:27.030Z,100960.38
2018-02-12T10:45:32.277Z,100972.75
2018-02-12T10:46:36.596Z,100959.92
2018-02-12T10:47:40.798Z,100970.78
2018-02-12T10:49:51.573Z,100994.32
2018-02-12T10:50:55.772Z,100997.36
2018-02-12T10:51:59.979Z,100992.59
2018-02-12T10:53:04.331Z,100992.30
2018-02-12T10:54:08.543Z,100984.39
2018-02-12T10:55:13.247Z,100985.46
2018-02-12T10:56:17.504Z,100979.69
2018-02-12T10:57:21.741Z,100974.84
2018-02-12T10:58:25.913Z,100984.25
2018-02-12T10:59:31.106Z,100981.56
2018-02-12T11:00:36.825Z,100965.78
2018-02-12T11:01:42.636Z,100985.02
2018-02-12T11:02:46.919Z,100980.18
2018-02-12T11:03:51.178Z,100980.20
2018-02-12T11:04:55.357Z,100979.52
2018-02-12T11:05:59.482Z,100974.14
2018-02-12T11:07:03.825Z,100984.36
2018-02-12T11:08:08.371Z,100978.61
2018-02-12T11:09:13.028Z,100983.31
2018-02-12T11:10:17.205Z,100992.41
2018-02-12T11:11:21.411Z,100992.47
2018-02-12T11:12:25.701Z,100989.50
2018-02-12T11:13:30.516Z,100983.98
2018-02-12T11:14:34.810Z,100983.55
2018-02-12T11:15:39.010Z,100975.20
2018-02-12T11:16:43.970Z,100982.04
2018-02-12T11:17:48.159Z,100972.94
2018-02-12T11:18:52.397Z,100979.66
2018-02-12T11:19:56.650Z,100980.56
2018-02-12T11:21:01.148Z,100984.95
2018-02-12T11:22:05.563Z,100987.45
2018-02-12T11:23:09.741Z,100975.81
2018-02-12T11:24:13.940Z,100985.14
2018-02-12T11:25:18.213Z,100980.27
2018-02-12T11:26:22.456Z,100975.41
2018-02-12T11:27:27.900Z,100977.59
2018-02-12T11:28:32.113Z,100984.13
2018-02-12T11:29:36.273Z,100980.91
2018-02-12T11:30:40.751Z,100976.83
2018-02-12T11:31:45.416Z,100978.20
2018-02-12T11:32:49.699Z,100980.95
2018-02-12T11:33:54.201Z,100980.44
2018-02-12T11:34:58.464Z,100979.84
2018-02-12T11:36:02.739Z,100987.70
2018-02-12T11:37:07.050Z,100986.88
2018-02-12T11:38:11.231Z,100988.20
2018-02-12T11:39:15.727Z,100991.17
2018-02-12T11:40:19.937Z,100994.64
2018-02-12T11:41:24.270Z,100990.20
2018-02-12T11:42:28.415Z,100987.48
2018-02-12T11:43:32.668Z,100986.20
2018-02-12T11:44:36.899Z,100999.00
2018-02-12T11:45:41.462Z,100986.23
2018-02-12T11:46:46.721Z,100990.03
2018-02-12T11:47:50.925Z,100992.20
2018-02-12T11:48:55.074Z,100995.09
2018-02-12T11:49:59.597Z,100996.63
2018-02-12T11:51:04.041Z,100988.42
2018-02-12T11:52:08.551Z,101003.06
2018-02-12T11:53:13.005Z,100990.22
2018-02-12T11:54:17.160Z,100997.93
2018-02-12T11:55:21.447Z,100988.12
2018-02-12T11:56:25.607Z,100989.85
2018-02-12T11:57:29.809Z,100990.86
2018-02-12T11:58:34.296Z,100984.48
2018-02-12T11:59:38.526Z,101002.31
2018-02-12T12:00:44.298Z,100996.78
2018-02-12T12:01:48.754Z,100993.05
2018-02-12T12:02:52.920Z,101000.56
2018-02-12T12:03:57.120Z,100991.69
2018-02-12T12:05:01.485Z,101005.86
2018-02-12T12:06:05.848Z,101003.61
2018-02-12T12:07:10.037Z,101003.97
2018-02-12T12:08:14.234Z,101021.20
2018-02-12T12:09:18.473Z,101003.56
2018-02-12T12:10:22.722Z,101002.30
2018-02-12T12:11:27.224Z,100998.78
2018-02-12T12:12:31.434Z,101002.33
2018-02-12T12:13:35.597Z,101007.06
2018-02-12T12:14:39.889Z,101010.11
2018-02-12T12:15:44.146Z,101008.78
2018-02-12T12:16:48.433Z,101003.89